Geroi Shipki — EOIB — position and weather

sailwx.info

Track history (hours):
 
Tides and Currents Weather Stations Pressure Air Temp Water Temp Dewpoint Dewpoint Depression Visibility Wind Speed Wind Dir Waves Ship Positions

Geroi Shipki

Last reported at 2014-Jul-21 15:33 UTC. Time now 2014-Jul-24 15:28 UTC.
Position N 43°42' E 035°24'.

Length 184 m; draft 6.5 m.

Type: Cargo ship. MMSI: 272976000.

Date/timePositionNaut miles runAvg speedWind from/ knotsBaromVisibWave heightAir tempDewpointWater temp
2014-Jul-21 15:33N 43°42' E 035°24'1311.9
2014-Jul-21 14:27N 43°46' E 035°06'1112.0
2014-Jul-21 13:33N 43°50' E 034°52'1211.9
2014-Jul-21 12:33N 43°54' E 034°37'1211.7
2014-Jul-21 11:32N 43°58' E 034°21'13811.5
2014-Jul-20 23:32N 45°29' E 031°55'1212.1
2014-Jul-20 22:33N 45°37' E 031°43'1212.0
2014-Jul-20 21:33N 45°47' E 031°32'1212.3
2014-Jul-20 20:33N 45°56' E 031°21'1212.2
2014-Jul-20 19:33N 46°05' E 031°08'1711.8
2014-Jul-20 18:05N 46°16' E 030°50'50 1.4
2014-Jul-19 06:29N 45°43' E 031°44'8 8.3
2014-Jul-19 05:33N 45°37' E 031°51'128 7.9
2014-Jul-18 13:27N 44°18' E 034°13'7 7.6
2014-Jul-18 12:33N 44°16' E 034°22'7 7.3
2014-Jul-18 11:33N 44°13' E 034°31'7 7.1
2014-Jul-18 10:33N 44°10' E 034°40'7 7.0
2014-Jul-18 09:30N 44°07' E 034°50'7 7.2
2014-Jul-18 08:32N 44°05' E 034°59'9 7.4
2014-Jul-18 07:18N 44°01' E 035°10'  
2014-Jul-14 18:24N 43°18' E 037°02'8 9.1
2014-Jul-14 17:33N 43°20' E 036°52'9 9.1
2014-Jul-14 16:33N 43°23' E 036°40'56 9.3
2014-Jul-14 10:33N 43°41' E 035°27'11 9.3
2014-Jul-14 09:25N 43°45' E 035°13'8 9.0
2014-Jul-14 08:33N 43°47' E 035°03'9 8.8
2014-Jul-14 07:33N 43°50' E 034°52'10 8.9
2014-Jul-14 06:29N 43°53' E 034°39'8 8.9
2014-Jul-14 05:32N 43°56' E 034°28'22 9.1
2014-Jul-14 03:07N 44°03' E 033°59'48 8.7
2014-Jul-13 21:33N 44°33' E 033°06'9 8.7
2014-Jul-13 20:33N 44°39' E 032°58'10 8.9
2014-Jul-13 19:29N 44°46' E 032°49'57 9.3
2014-Jul-13 13:22N 45°29' E 031°55'7 9.2
2014-Jul-13 12:33N 45°34' E 031°48'10 9.2
2014-Jul-13 11:29N 45°41' E 031°38'20 9.3
2014-Jul-13 09:23N 45°56' E 031°20'3 0.1
2014-Jul-12 00:26N 45°57' E 031°24'1212.6
2014-Jul-11 23:27N 45°48' E 031°36'1712.9
2014-Jul-11 22:09N 45°36' E 031°52'  
Track history (hours):
 
Tides and Currents Weather Stations Pressure Air Temp Water Temp Dewpoint Dewpoint Depression Visibility Wind Speed Wind Dir Waves Ship Positions

Geroi Shipki

Last reported at 2014-Jul-21 15:33 UTC. Time now 2014-Jul-24 15:28 UTC.
Position N 43°42' E 035°24'.

Length 184 m; draft 6.5 m.

Type: Cargo ship. MMSI: 272976000.

Date/timePositionNaut miles runAvg speedWind from/ knotsBaromVisibWave heightAir tempDewpointWater temp
2014-Jul-21 15:33N 43°42' E 035°24'1311.9
2014-Jul-21 14:27N 43°46' E 035°06'1112.0
2014-Jul-21 13:33N 43°50' E 034°52'1211.9
2014-Jul-21 12:33N 43°54' E 034°37'1211.7
2014-Jul-21 11:32N 43°58' E 034°21'13811.5
2014-Jul-20 23:32N 45°29' E 031°55'1212.1
2014-Jul-20 22:33N 45°37' E 031°43'1212.0
2014-Jul-20 21:33N 45°47' E 031°32'1212.3
2014-Jul-20 20:33N 45°56' E 031°21'1212.2
2014-Jul-20 19:33N 46°05' E 031°08'1711.8
2014-Jul-20 18:05N 46°16' E 030°50'50 1.4
2014-Jul-19 06:29N 45°43' E 031°44'8 8.3
2014-Jul-19 05:33N 45°37' E 031°51'128 7.9
2014-Jul-18 13:27N 44°18' E 034°13'7 7.6
2014-Jul-18 12:33N 44°16' E 034°22'7 7.3
2014-Jul-18 11:33N 44°13' E 034°31'7 7.1
2014-Jul-18 10:33N 44°10' E 034°40'7 7.0
2014-Jul-18 09:30N 44°07' E 034°50'7 7.2
2014-Jul-18 08:32N 44°05' E 034°59'9 7.4
2014-Jul-18 07:18N 44°01' E 035°10'  
2014-Jul-14 18:24N 43°18' E 037°02'8 9.1
2014-Jul-14 17:33N 43°20' E 036°52'9 9.1
2014-Jul-14 16:33N 43°23' E 036°40'56 9.3
2014-Jul-14 10:33N 43°41' E 035°27'11 9.3
2014-Jul-14 09:25N 43°45' E 035°13'8 9.0
2014-Jul-14 08:33N 43°47' E 035°03'9 8.8
2014-Jul-14 07:33N 43°50' E 034°52'10 8.9
2014-Jul-14 06:29N 43°53' E 034°39'8 8.9
2014-Jul-14 05:32N 43°56' E 034°28'22 9.1
2014-Jul-14 03:07N 44°03' E 033°59'48 8.7
2014-Jul-13 21:33N 44°33' E 033°06'9 8.7
2014-Jul-13 20:33N 44°39' E 032°58'10 8.9
2014-Jul-13 19:29N 44°46' E 032°49'57 9.3
2014-Jul-13 13:22N 45°29' E 031°55'7 9.2
2014-Jul-13 12:33N 45°34' E 031°48'10 9.2
2014-Jul-13 11:29N 45°41' E 031°38'20 9.3
2014-Jul-13 09:23N 45°56' E 031°20'3 0.1
2014-Jul-12 00:26N 45°57' E 031°24'1212.6
2014-Jul-11 23:27N 45°48' E 031°36'1712.9
2014-Jul-11 22:09N 45°36' E 031°52'  

Dump ship's entire track history